UNEE

Kemerovo Airport

Kemerovo, Russian Federation
TAF UNEE 182000Z 1821/1921 03003G08MPS 9999 SCT030 TEMPO 1821/1902 0300 FG VV001
Issued Valid From Valid To
Jul-18 @ 20:00 UTC
(2 hours ago)
Jul-18 @ 21:00 UTC
(an hour ago)
Jul-19 @ 21:00 UTC
(in 23 hours)
Jul-18 @ 21:00 to Jul-19 @ 21:00
TAF UNEE 182000Z 1821/1921 03003G08MPS 9999 SCT030
Wind Visibility Clouds
30° at 6 knots
 Gusting to 16 knots
10,000+ meters
  • Scattered at 3,000' AGL
Temporary Jul-18 @ 21:00 to Jul-19 @ 02:00
TEMPO 1821/1902 0300 FG VV001
Visibility Clouds Conditions
306 meters
  • Vertical visibility at 100' AGL
  • Fog
TAF UNEE 182000Z 1821/1921 03003G08MPS 9999 SCT030 TEMPO 1821/1902 0300 FG VV001
Issued Jul-18 @ 20:00 UTC
(2 hours ago)
Valid From Jul-18 @ 21:00 UTC
(an hour ago)
Valid To Jul-19 @ 21:00 UTC
(in 23 hours)
Jul-18 @ 21:00 - Jul-19 @ 21:00
Wind Visibility
30° at 6 knots
 Gusting to 16 knots
10,000+ meters
Clouds
  • Scattered at 3,000' AGL
Temporary Jul-18 @ 21:00 - Jul-19 @ 02:00
Clouds
  • Vertical visibility at 100' AGL
Conditions
  • Fog